sensor_id;sensor_type;location;lat;lon;timestamp;pressure;altitude;pressure_sealevel;temperature;humidity
47366;BME280;33105;47.964;7.982;2024-02-21T00:08:25;97733.34;;;3.94;100.00
47366;BME280;33105;47.964;7.982;2024-02-21T00:17:20;97715.94;;;4.38;100.00
47366;BME280;33105;47.964;7.982;2024-02-21T00:25:01;97707.78;;;4.31;100.00
47366;BME280;33105;47.964;7.982;2024-02-21T00:28:07;97719.88;;;4.01;100.00
47366;BME280;33105;47.964;7.982;2024-02-21T00:31:14;97726.66;;;3.90;100.00
47366;BME280;33105;47.964;7.982;2024-02-21T00:34:16;97727.97;;;4.01;100.00
47366;BME280;33105;47.964;7.982;2024-02-21T00:37:20;97720.31;;;4.04;100.00
47366;BME280;33105;47.964;7.982;2024-02-21T00:40:24;97726.22;;;3.87;100.00
47366;BME280;33105;47.964;7.982;2024-02-21T00:58:58;97721.81;;;4.48;100.00
47366;BME280;33105;47.964;7.982;2024-02-21T01:02:30;97709.53;;;4.45;100.00
47366;BME280;33105;47.964;7.982;2024-02-21T01:05:37;97701.91;;;4.21;100.00
47366;BME280;33105;47.964;7.982;2024-02-21T01:08:39;97696.13;;;4.65;100.00
47366;BME280;33105;47.964;7.982;2024-02-21T01:11:55;97685.69;;;4.62;100.00
47366;BME280;33105;47.964;7.982;2024-02-21T01:14:57;97689.19;;;4.56;100.00
47366;BME280;33105;47.964;7.982;2024-02-21T01:17:58;97680.84;;;4.51;100.00
47366;BME280;33105;47.964;7.982;2024-02-21T01:21:00;97680.72;;;4.66;100.00
47366;BME280;33105;47.964;7.982;2024-02-21T01:24:01;97675.50;;;4.64;100.00
47366;BME280;33105;47.964;7.982;2024-02-21T01:27:03;97663.16;;;4.55;100.00
47366;BME280;33105;47.964;7.982;2024-02-21T01:30:05;97662.84;;;4.78;100.00
47366;BME280;33105;47.964;7.982;2024-02-21T01:33:07;97657.19;;;4.66;100.00
47366;BME280;33105;47.964;7.982;2024-02-21T01:36:08;97648.03;;;4.74;100.00
47366;BME280;33105;47.964;7.982;2024-02-21T01:39:10;97650.19;;;4.92;100.00
47366;BME280;33105;47.964;7.982;2024-02-21T01:46:30;97628.25;;;4.73;100.00
47366;BME280;33105;47.964;7.982;2024-02-21T01:49:42;97618.31;;;5.00;100.00
47366;BME280;33105;47.964;7.982;2024-02-21T01:52:53;97616.22;;;4.96;100.00
47366;BME280;33105;47.964;7.982;2024-02-21T01:55:54;97609.97;;;4.89;100.00
47366;BME280;33105;47.964;7.982;2024-02-21T01:58:56;97606.88;;;4.92;100.00
47366;BME280;33105;47.964;7.982;2024-02-21T02:01:58;97605.81;;;4.86;100.00
47366;BME280;33105;47.964;7.982;2024-02-21T02:04:59;97596.66;;;5.00;100.00
47366;BME280;33105;47.964;7.982;2024-02-21T02:08:01;97589.19;;;5.09;99.59
47366;BME280;33105;47.964;7.982;2024-02-21T02:11:03;97590.22;;;4.95;100.00
47366;BME280;33105;47.964;7.982;2024-02-21T02:14:04;97582.91;;;5.02;100.00
47366;BME280;33105;47.964;7.982;2024-02-21T02:17:06;97565.63;;;5.09;100.00
47366;BME280;33105;47.964;7.982;2024-02-21T02:20:08;97563.75;;;5.10;98.11
47366;BME280;33105;47.964;7.982;2024-02-21T02:26:52;97544.19;;;5.08;98.32
47366;BME280;33105;47.964;7.982;2024-02-21T02:29:54;97541.47;;;4.95;98.44
47366;BME280;33105;47.964;7.982;2024-02-21T02:32:55;97532.28;;;4.83;100.00
47366;BME280;33105;47.964;7.982;2024-02-21T02:35:56;97537.69;;;4.69;100.00
47366;BME280;33105;47.964;7.982;2024-02-21T02:39:00;97547.84;;;4.54;100.00
47366;BME280;33105;47.964;7.982;2024-02-21T02:42:01;97539.31;;;4.57;100.00
47366;BME280;33105;47.964;7.982;2024-02-21T02:45:03;97543.44;;;4.47;100.00
47366;BME280;33105;47.964;7.982;2024-02-21T02:48:05;97536.16;;;4.40;100.00
47366;BME280;33105;47.964;7.982;2024-02-21T02:51:06;97535.97;;;4.49;100.00
47366;BME280;33105;47.964;7.982;2024-02-21T02:54:07;97527.91;;;4.68;100.00
47366;BME280;33105;47.964;7.982;2024-02-21T02:57:09;97536.66;;;4.84;100.00
47366;BME280;33105;47.964;7.982;2024-02-21T03:00:11;97523.09;;;4.70;100.00
47366;BME280;33105;47.964;7.982;2024-02-21T03:03:13;97524.72;;;4.52;100.00
47366;BME280;33105;47.964;7.982;2024-02-21T03:06:14;97528.03;;;4.47;100.00
47366;BME280;33105;47.964;7.982;2024-02-21T03:09:15;97531.41;;;4.42;100.00
47366;BME280;33105;47.964;7.982;2024-02-21T03:12:18;97514.59;;;4.80;100.00
47366;BME280;33105;47.964;7.982;2024-02-21T03:15:25;97509.00;;;4.95;100.00
47366;BME280;33105;47.964;7.982;2024-02-21T03:18:26;97504.41;;;4.89;100.00
47366;BME280;33105;47.964;7.982;2024-02-21T03:21:27;97492.94;;;4.87;100.00
47366;BME280;33105;47.964;7.982;2024-02-21T03:24:31;97487.28;;;4.55;100.00
47366;BME280;33105;47.964;7.982;2024-02-21T03:27:32;97483.13;;;4.59;100.00
47366;BME280;33105;47.964;7.982;2024-02-21T03:30:33;97476.84;;;4.32;100.00
47366;BME280;33105;47.964;7.982;2024-02-21T03:33:35;97488.47;;;4.20;100.00
47366;BME280;33105;47.964;7.982;2024-02-21T03:36:36;97482.63;;;4.16;100.00
47366;BME280;33105;47.964;7.982;2024-02-21T03:39:37;97471.38;;;4.13;100.00
47366;BME280;33105;47.964;7.982;2024-02-21T03:42:39;97469.28;;;4.08;100.00
47366;BME280;33105;47.964;7.982;2024-02-21T03:45:53;97463.13;;;4.54;100.00
47366;BME280;33105;47.964;7.982;2024-02-21T03:49:16;97473.53;;;4.57;100.00
47366;BME280;33105;47.964;7.982;2024-02-21T03:52:19;97472.88;;;4.28;100.00
47366;BME280;33105;47.964;7.982;2024-02-21T03:55:20;97471.88;;;4.49;100.00
47366;BME280;33105;47.964;7.982;2024-02-21T03:58:22;97478.88;;;4.24;100.00
47366;BME280;33105;47.964;7.982;2024-02-21T04:01:24;97477.19;;;4.09;100.00
47366;BME280;33105;47.964;7.982;2024-02-21T04:04:25;97467.25;;;4.17;100.00
47366;BME280;33105;47.964;7.982;2024-02-21T04:07:39;97468.00;;;3.97;100.00
47366;BME280;33105;47.964;7.982;2024-02-21T04:10:46;97458.69;;;4.06;100.00
47366;BME280;33105;47.964;7.982;2024-02-21T04:13:48;97450.38;;;4.21;100.00
47366;BME280;33105;47.964;7.982;2024-02-21T04:17:00;97444.13;;;4.07;100.00
47366;BME280;33105;47.964;7.982;2024-02-21T04:20:16;97453.03;;;4.01;100.00
47366;BME280;33105;47.964;7.982;2024-02-21T04:23:24;97454.28;;;3.92;100.00
47366;BME280;33105;47.964;7.982;2024-02-21T04:26:34;97434.81;;;4.30;100.00
47366;BME280;33105;47.964;7.982;2024-02-21T04:29:42;97435.03;;;4.41;100.00
47366;BME280;33105;47.964;7.982;2024-02-21T04:37:52;97403.19;;;4.37;100.00
47366;BME280;33105;47.964;7.982;2024-02-21T04:41:37;97393.59;;;4.15;100.00
47366;BME280;33105;47.964;7.982;2024-02-21T04:44:38;97395.69;;;4.26;100.00
47366;BME280;33105;47.964;7.982;2024-02-21T04:47:40;97409.63;;;4.36;100.00
47366;BME280;33105;47.964;7.982;2024-02-21T04:50:41;97412.31;;;4.09;100.00
47366;BME280;33105;47.964;7.982;2024-02-21T04:53:42;97413.53;;;4.00;100.00
47366;BME280;33105;47.964;7.982;2024-02-21T04:56:44;97423.09;;;4.03;100.00
47366;BME280;33105;47.964;7.982;2024-02-21T04:59:45;97428.03;;;3.80;100.00
47366;BME280;33105;47.964;7.982;2024-02-21T05:08:12;97400.38;;;3.30;100.00
47366;BME280;33105;47.964;7.982;2024-02-21T05:11:47;97394.09;;;3.16;100.00
47366;BME280;33105;47.964;7.982;2024-02-21T05:14:48;97390.53;;;3.09;100.00
47366;BME280;33105;47.964;7.982;2024-02-21T05:17:59;97390.75;;;3.14;100.00
47366;BME280;33105;47.964;7.982;2024-02-21T05:29:17;97384.75;;;3.66;100.00
47366;BME280;33105;47.964;7.982;2024-02-21T05:33:18;97383.75;;;3.81;100.00
47366;BME280;33105;47.964;7.982;2024-02-21T05:36:22;97376.53;;;3.94;100.00
47366;BME280;33105;47.964;7.982;2024-02-21T05:39:46;97381.22;;;3.72;100.00
47366;BME280;33105;47.964;7.982;2024-02-21T05:51:51;97376.09;;;3.30;100.00
47366;BME280;33105;47.964;7.982;2024-02-21T05:55:56;97372.94;;;3.26;100.00
47366;BME280;33105;47.964;7.982;2024-02-21T05:59:25;97377.50;;;3.19;100.00
47366;BME280;33105;47.964;7.982;2024-02-21T06:03:19;97372.41;;;3.03;100.00
47366;BME280;33105;47.964;7.982;2024-02-21T06:19:21;97375.44;;;3.21;100.00
47366;BME280;33105;47.964;7.982;2024-02-21T06:22:38;97372.06;;;3.13;100.00
47366;BME280;33105;47.964;7.982;2024-02-21T06:25:46;97354.94;;;2.99;100.00
47366;BME280;33105;47.964;7.982;2024-02-21T06:28:49;97353.41;;;3.18;100.00
47366;BME280;33105;47.964;7.982;2024-02-21T06:33:09;97356.06;;;3.11;100.00
47366;BME280;33105;47.964;7.982;2024-02-21T06:36:39;97344.59;;;3.02;100.00
47366;BME280;33105;47.964;7.982;2024-02-21T06:40:27;97348.53;;;3.00;100.00
47366;BME280;33105;47.964;7.982;2024-02-21T06:47:11;97350.03;;;3.09;100.00
47366;BME280;33105;47.964;7.982;2024-02-21T06:50:49;97351.25;;;3.06;100.00
47366;BME280;33105;47.964;7.982;2024-02-21T06:54:07;97347.44;;;2.88;100.00
47366;BME280;33105;47.964;7.982;2024-02-21T06:57:18;97342.50;;;2.98;100.00
47366;BME280;33105;47.964;7.982;2024-02-21T07:01:16;97341.31;;;3.07;100.00
47366;BME280;33105;47.964;7.982;2024-02-21T07:04:49;97338.94;;;3.38;100.00
47366;BME280;33105;47.964;7.982;2024-02-21T07:08:30;97328.69;;;3.95;99.38
47366;BME280;33105;47.964;7.982;2024-02-21T07:41:51;97295.41;;;4.40;96.58
47366;BME280;33105;47.964;7.982;2024-02-21T07:44:53;97291.38;;;4.76;92.81
47366;BME280;33105;47.964;7.982;2024-02-21T07:47:57;97286.47;;;4.40;96.20
47366;BME280;33105;47.964;7.982;2024-02-21T07:50:59;97283.53;;;4.22;98.62
47366;BME280;33105;47.964;7.982;2024-02-21T07:54:00;97277.94;;;4.17;99.23
47366;BME280;33105;47.964;7.982;2024-02-21T07:57:02;97282.31;;;4.18;98.32
47366;BME280;33105;47.964;7.982;2024-02-21T08:04:15;97296.47;;;4.20;97.33
47366;BME280;33105;47.964;7.982;2024-02-21T08:12:43;97295.41;;;4.27;100.00
47366;BME280;33105;47.964;7.982;2024-02-21T08:15:44;97293.25;;;4.75;99.89
47366;BME280;33105;47.964;7.982;2024-02-21T08:18:45;97285.56;;;5.24;94.99
47366;BME280;33105;47.964;7.982;2024-02-21T08:21:47;97288.06;;;5.25;96.09
47366;BME280;33105;47.964;7.982;2024-02-21T08:24:49;97286.34;;;4.93;96.72
47366;BME280;33105;47.964;7.982;2024-02-21T08:27:50;97282.34;;;4.95;98.64
47366;BME280;33105;47.964;7.982;2024-02-21T08:30:53;97284.69;;;4.92;98.82
47366;BME280;33105;47.964;7.982;2024-02-21T08:33:55;97271.09;;;4.98;100.00
47366;BME280;33105;47.964;7.982;2024-02-21T08:36:57;97267.53;;;5.49;97.15
47366;BME280;33105;47.964;7.982;2024-02-21T08:39:59;97258.06;;;5.96;91.39
47366;BME280;33105;47.964;7.982;2024-02-21T08:43:09;97254.59;;;5.89;95.59
47366;BME280;33105;47.964;7.982;2024-02-21T08:46:10;97247.69;;;5.87;98.29
47366;BME280;33105;47.964;7.982;2024-02-21T08:49:11;97248.13;;;5.90;100.00
47366;BME280;33105;47.964;7.982;2024-02-21T08:52:12;97247.50;;;6.13;99.13
47366;BME280;33105;47.964;7.982;2024-02-21T08:55:14;97244.84;;;6.06;97.16
47366;BME280;33105;47.964;7.982;2024-02-21T08:58:15;97243.44;;;5.97;98.15
47366;BME280;33105;47.964;7.982;2024-02-21T09:01:16;97236.13;;;6.23;97.56
47366;BME280;33105;47.964;7.982;2024-02-21T09:04:17;97233.31;;;6.36;98.06
47366;BME280;33105;47.964;7.982;2024-02-21T09:07:19;97222.53;;;6.47;96.41
47366;BME280;33105;47.964;7.982;2024-02-21T09:10:20;97220.59;;;6.73;92.68
47366;BME280;33105;47.964;7.982;2024-02-21T09:13:22;97214.19;;;6.86;91.98
47366;BME280;33105;47.964;7.982;2024-02-21T09:16:24;97212.50;;;7.03;87.29
47366;BME280;33105;47.964;7.982;2024-02-21T09:19:25;97202.72;;;6.83;94.82
47366;BME280;33105;47.964;7.982;2024-02-21T09:22:27;97200.00;;;6.83;94.31
47366;BME280;33105;47.964;7.982;2024-02-21T09:25:28;97202.72;;;6.83;96.29
47366;BME280;33105;47.964;7.982;2024-02-21T09:28:29;97188.84;;;6.92;97.88
47366;BME280;33105;47.964;7.982;2024-02-21T09:31:31;97190.00;;;7.14;93.38
47366;BME280;33105;47.964;7.982;2024-02-21T09:34:32;97195.38;;;7.32;93.56
47366;BME280;33105;47.964;7.982;2024-02-21T09:37:34;97191.38;;;7.65;84.48
47366;BME280;33105;47.964;7.982;2024-02-21T09:40:35;97185.38;;;7.44;89.42
47366;BME280;33105;47.964;7.982;2024-02-21T09:43:40;97196.34;;;7.08;93.10
47366;BME280;33105;47.964;7.982;2024-02-21T09:47:37;97202.88;;;7.18;93.12
47366;BME280;33105;47.964;7.982;2024-02-21T09:50:13;97194.66;;;7.25;93.96
47366;BME280;33105;47.964;7.982;2024-02-21T09:53:15;97191.38;;;7.35;95.10
47366;BME280;33105;47.964;7.982;2024-02-21T09:56:17;97192.13;;;7.42;94.63
47366;BME280;33105;47.964;7.982;2024-02-21T09:59:18;97176.75;;;7.89;92.57
47366;BME280;33105;47.964;7.982;2024-02-21T10:02:20;97179.34;;;7.84;92.14
47366;BME280;33105;47.964;7.982;2024-02-21T10:05:21;97176.44;;;7.56;89.01
47366;BME280;33105;47.964;7.982;2024-02-21T10:08:22;97176.72;;;7.66;92.20
47366;BME280;33105;47.964;7.982;2024-02-21T10:11:25;97167.75;;;7.89;92.71
47366;BME280;33105;47.964;7.982;2024-02-21T10:14:26;97163.97;;;8.48;82.98
47366;BME280;33105;47.964;7.982;2024-02-21T10:17:27;97149.88;;;8.63;81.13
47366;BME280;33105;47.964;7.982;2024-02-21T10:20:29;97143.44;;;8.80;79.52
47366;BME280;33105;47.964;7.982;2024-02-21T10:26:47;97137.00;;;8.11;85.50
47366;BME280;33105;47.964;7.982;2024-02-21T10:29:49;97138.19;;;8.15;90.21
47366;BME280;33105;47.964;7.982;2024-02-21T10:32:54;97132.16;;;8.37;88.07
47366;BME280;33105;47.964;7.982;2024-02-21T10:36:06;97120.97;;;9.02;79.97
47366;BME280;33105;47.964;7.982;2024-02-21T10:39:08;97114.09;;;8.99;85.23
47366;BME280;33105;47.964;7.982;2024-02-21T10:42:14;97101.78;;;8.68;81.51
47366;BME280;33105;47.964;7.982;2024-02-21T10:45:18;97097.59;;;8.77;82.35
47366;BME280;33105;47.964;7.982;2024-02-21T10:48:22;97100.50;;;8.59;78.45
47366;BME280;33105;47.964;7.982;2024-02-21T10:51:32;97096.56;;;8.67;81.33
47366;BME280;33105;47.964;7.982;2024-02-21T10:57:48;97084.28;;;8.93;78.35
47366;BME280;33105;47.964;7.982;2024-02-21T11:00:50;97072.91;;;9.58;66.93
47366;BME280;33105;47.964;7.982;2024-02-21T11:03:53;97065.22;;;9.54;75.33
47366;BME280;33105;47.964;7.982;2024-02-21T11:06:55;97060.50;;;9.33;70.26
47366;BME280;33105;47.964;7.982;2024-02-21T11:09:57;97053.16;;;9.34;77.88
47366;BME280;33105;47.964;7.982;2024-02-21T11:16:09;97036.06;;;9.38;67.25
47366;BME280;33105;47.964;7.982;2024-02-21T11:19:22;97037.53;;;9.29;70.77
47366;BME280;33105;47.964;7.982;2024-02-21T11:22:24;97031.84;;;9.64;65.49
47366;BME280;33105;47.964;7.982;2024-02-21T11:25:30;97010.31;;;10.06;61.49
47366;BME280;33105;47.964;7.982;2024-02-21T11:28:35;97005.38;;;10.03;65.26
47366;BME280;33105;47.964;7.982;2024-02-21T11:31:39;97006.25;;;9.87;62.71
47366;BME280;33105;47.964;7.982;2024-02-21T11:35:18;97002.28;;;9.78;65.08
47366;BME280;33105;47.964;7.982;2024-02-21T11:38:14;96988.28;;;9.91;71.61
47366;BME280;33105;47.964;7.982;2024-02-21T11:41:19;96990.88;;;10.19;68.15
47366;BME280;33105;47.964;7.982;2024-02-21T11:44:21;96976.13;;;10.42;63.59
47366;BME280;33105;47.964;7.982;2024-02-21T11:47:23;96979.94;;;10.19;64.63
47366;BME280;33105;47.964;7.982;2024-02-21T11:50:25;96974.94;;;10.16;66.71
47366;BME280;33105;47.964;7.982;2024-02-21T11:53:26;96969.09;;;10.25;64.98
47366;BME280;33105;47.964;7.982;2024-02-21T11:56:31;96958.63;;;10.65;62.27
47366;BME280;33105;47.964;7.982;2024-02-21T11:59:33;96952.22;;;10.54;63.82
47366;BME280;33105;47.964;7.982;2024-02-21T12:02:35;96948.13;;;10.30;65.99
47366;BME280;33105;47.964;7.982;2024-02-21T12:05:36;96939.66;;;10.53;64.75
47366;BME280;33105;47.964;7.982;2024-02-21T12:08:43;96941.41;;;10.38;64.62
47366;BME280;33105;47.964;7.982;2024-02-21T12:11:45;96938.81;;;10.53;60.26
47366;BME280;33105;47.964;7.982;2024-02-21T12:14:54;96946.00;;;10.59;64.35
47366;BME280;33105;47.964;7.982;2024-02-21T12:17:57;96936.22;;;10.63;63.18
47366;BME280;33105;47.964;7.982;2024-02-21T12:20:58;96934.97;;;10.49;63.39
47366;BME280;33105;47.964;7.982;2024-02-21T12:24:00;96928.72;;;10.80;60.91
47366;BME280;33105;47.964;7.982;2024-02-21T12:27:01;96920.66;;;10.64;61.65
47366;BME280;33105;47.964;7.982;2024-02-21T12:30:05;96912.97;;;10.61;59.82
47366;BME280;33105;47.964;7.982;2024-02-21T12:33:11;96904.34;;;10.47;59.59
47366;BME280;33105;47.964;7.982;2024-02-21T12:36:12;96902.91;;;10.39;59.08
47366;BME280;33105;47.964;7.982;2024-02-21T12:39:13;96896.56;;;10.34;59.75
47366;BME280;33105;47.964;7.982;2024-02-21T12:42:15;96898.78;;;10.37;56.89
47366;BME280;33105;47.964;7.982;2024-02-21T12:45:16;96884.25;;;10.31;57.34
47366;BME280;33105;47.964;7.982;2024-02-21T12:48:22;96879.13;;;10.40;57.86
47366;BME280;33105;47.964;7.982;2024-02-21T12:51:23;96875.50;;;10.56;62.83
47366;BME280;33105;47.964;7.982;2024-02-21T12:54:25;96864.25;;;10.84;63.09
47366;BME280;33105;47.964;7.982;2024-02-21T12:57:29;96857.31;;;10.72;60.40
47366;BME280;33105;47.964;7.982;2024-02-21T13:00:31;96848.03;;;10.73;61.51
47366;BME280;33105;47.964;7.982;2024-02-21T13:03:33;96837.28;;;10.61;60.73
47366;BME280;33105;47.964;7.982;2024-02-21T13:06:34;96834.56;;;10.61;60.11
47366;BME280;33105;47.964;7.982;2024-02-21T13:09:37;96824.72;;;10.65;61.21
47366;BME280;33105;47.964;7.982;2024-02-21T13:12:39;96810.91;;;10.45;59.19
47366;BME280;33105;47.964;7.982;2024-02-21T13:15:52;96820.44;;;10.74;63.12
47366;BME280;33105;47.964;7.982;2024-02-21T13:18:54;96809.44;;;10.64;59.46
47366;BME280;33105;47.964;7.982;2024-02-21T13:21:55;96807.75;;;10.58;64.55
47366;BME280;33105;47.964;7.982;2024-02-21T13:24:57;96796.56;;;10.97;58.70
47366;BME280;33105;47.964;7.982;2024-02-21T13:27:58;96798.53;;;10.69;58.81
47366;BME280;33105;47.964;7.982;2024-02-21T13:30:59;96789.00;;;10.72;59.75
47366;BME280;33105;47.964;7.982;2024-02-21T13:34:01;96778.19;;;10.87;56.82
47366;BME280;33105;47.964;7.982;2024-02-21T13:37:02;96783.50;;;11.04;60.35
47366;BME280;33105;47.964;7.982;2024-02-21T13:43:37;96761.25;;;10.90;62.55
47366;BME280;33105;47.964;7.982;2024-02-21T13:46:39;96766.38;;;10.76;62.31
47366;BME280;33105;47.964;7.982;2024-02-21T13:49:41;96758.88;;;10.62;61.90
47366;BME280;33105;47.964;7.982;2024-02-21T13:52:42;96753.47;;;10.72;64.76
47366;BME280;33105;47.964;7.982;2024-02-21T13:55:44;96749.41;;;10.74;61.62
47366;BME280;33105;47.964;7.982;2024-02-21T13:58:49;96732.81;;;11.43;55.08
47366;BME280;33105;47.964;7.982;2024-02-21T14:01:52;96725.13;;;11.35;64.59
47366;BME280;33105;47.964;7.982;2024-02-21T14:04:57;96726.09;;;11.14;64.83
47366;BME280;33105;47.964;7.982;2024-02-21T14:08:08;96711.47;;;11.40;62.14
47366;BME280;33105;47.964;7.982;2024-02-21T14:11:16;96715.19;;;11.09;61.83
47366;BME280;33105;47.964;7.982;2024-02-21T14:14:18;96711.53;;;10.88;61.11
47366;BME280;33105;47.964;7.982;2024-02-21T14:17:19;96703.03;;;10.84;64.01
47366;BME280;33105;47.964;7.982;2024-02-21T14:20:21;96703.25;;;10.78;64.86
47366;BME280;33105;47.964;7.982;2024-02-21T14:23:22;96706.53;;;10.80;71.12
47366;BME280;33105;47.964;7.982;2024-02-21T14:26:24;96695.81;;;11.25;64.51
47366;BME280;33105;47.964;7.982;2024-02-21T14:29:25;96695.59;;;11.32;66.50
47366;BME280;33105;47.964;7.982;2024-02-21T14:32:27;96671.91;;;10.96;62.32
47366;BME280;33105;47.964;7.982;2024-02-21T14:35:29;96668.63;;;10.94;65.01
47366;BME280;33105;47.964;7.982;2024-02-21T14:38:30;96671.34;;;10.88;65.42
47366;BME280;33105;47.964;7.982;2024-02-21T14:41:31;96674.34;;;10.87;65.95
47366;BME280;33105;47.964;7.982;2024-02-21T14:44:33;96662.56;;;10.81;64.98
47366;BME280;33105;47.964;7.982;2024-02-21T14:47:37;96665.06;;;10.88;66.42
47366;BME280;33105;47.964;7.982;2024-02-21T14:50:41;96661.06;;;11.11;67.58
47366;BME280;33105;47.964;7.982;2024-02-21T14:53:43;96657.50;;;11.10;65.98
47366;BME280;33105;47.964;7.982;2024-02-21T14:56:44;96651.66;;;10.91;65.74
47366;BME280;33105;47.964;7.982;2024-02-21T14:59:48;96643.13;;;10.78;60.86
47366;BME280;33105;47.964;7.982;2024-02-21T15:02:51;96634.16;;;10.82;63.16
47366;BME280;33105;47.964;7.982;2024-02-21T15:05:52;96644.00;;;10.88;64.67
47366;BME280;33105;47.964;7.982;2024-02-21T15:08:53;96636.09;;;10.87;64.91
47366;BME280;33105;47.964;7.982;2024-02-21T15:11:55;96631.69;;;10.81;72.79
47366;BME280;33105;47.964;7.982;2024-02-21T15:14:56;96623.94;;;10.63;70.10
47366;BME280;33105;47.964;7.982;2024-02-21T15:17:57;96619.31;;;10.63;75.11
47366;BME280;33105;47.964;7.982;2024-02-21T15:20:59;96619.84;;;10.65;76.61
47366;BME280;33105;47.964;7.982;2024-02-21T15:24:02;96606.66;;;10.52;75.59
47366;BME280;33105;47.964;7.982;2024-02-21T15:27:04;96605.63;;;10.58;74.76
47366;BME280;33105;47.964;7.982;2024-02-21T15:30:06;96602.22;;;10.41;70.89
47366;BME280;33105;47.964;7.982;2024-02-21T15:33:08;96597.28;;;10.33;69.85
47366;BME280;33105;47.964;7.982;2024-02-21T15:36:09;96595.63;;;10.32;69.62
47366;BME280;33105;47.964;7.982;2024-02-21T15:39:10;96590.78;;;10.39;69.58
47366;BME280;33105;47.964;7.982;2024-02-21T15:42:12;96582.38;;;10.55;73.57
47366;BME280;33105;47.964;7.982;2024-02-21T15:45:13;96571.63;;;10.34;70.54
47366;BME280;33105;47.964;7.982;2024-02-21T15:48:15;96566.75;;;10.46;70.42
47366;BME280;33105;47.964;7.982;2024-02-21T15:51:18;96564.03;;;10.46;71.90
47366;BME280;33105;47.964;7.982;2024-02-21T15:54:21;96555.28;;;10.39;67.46
47366;BME280;33105;47.964;7.982;2024-02-21T15:57:22;96557.00;;;10.18;64.27
47366;BME280;33105;47.964;7.982;2024-02-21T16:00:23;96557.78;;;10.08;67.17
47366;BME280;33105;47.964;7.982;2024-02-21T16:03:24;96545.63;;;10.26;66.14
47366;BME280;33105;47.964;7.982;2024-02-21T16:06:26;96540.28;;;10.04;70.71
47366;BME280;33105;47.964;7.982;2024-02-21T16:09:28;96538.56;;;9.93;67.03
47366;BME280;33105;47.964;7.982;2024-02-21T16:12:33;96527.81;;;9.76;68.92
47366;BME280;33105;47.964;7.982;2024-02-21T16:15:34;96535.16;;;9.71;66.31
47366;BME280;33105;47.964;7.982;2024-02-21T16:18:36;96530.38;;;9.93;67.65
47366;BME280;33105;47.964;7.982;2024-02-21T16:21:37;96536.28;;;9.75;64.32
47366;BME280;33105;47.964;7.982;2024-02-21T16:24:38;96527.59;;;9.83;65.47
47366;BME280;33105;47.964;7.982;2024-02-21T16:27:40;96524.84;;;9.78;64.23
47366;BME280;33105;47.964;7.982;2024-02-21T16:30:42;96520.69;;;10.12;65.67
47366;BME280;33105;47.964;7.982;2024-02-21T16:33:44;96506.78;;;9.72;63.12
47366;BME280;33105;47.964;7.982;2024-02-21T16:36:45;96512.66;;;9.53;63.65
47366;BME280;33105;47.964;7.982;2024-02-21T16:39:47;96509.94;;;9.53;61.37
47366;BME280;33105;47.964;7.982;2024-02-21T16:42:48;96504.13;;;9.45;61.09
47366;BME280;33105;47.964;7.982;2024-02-21T16:45:53;96510.28;;;9.62;61.42
47366;BME280;33105;47.964;7.982;2024-02-21T16:48:56;96500.38;;;9.51;63.28
47366;BME280;33105;47.964;7.982;2024-02-21T16:51:57;96504.75;;;9.94;59.56
47366;BME280;33105;47.964;7.982;2024-02-21T16:55:00;96490.94;;;9.69;59.76
47366;BME280;33105;47.964;7.982;2024-02-21T16:58:01;96496.81;;;9.50;60.34
47366;BME280;33105;47.964;7.982;2024-02-21T17:01:07;96499.13;;;9.32;58.61
47366;BME280;33105;47.964;7.982;2024-02-21T17:04:09;96504.38;;;9.38;58.44
47366;BME280;33105;47.964;7.982;2024-02-21T17:07:10;96498.09;;;9.38;59.32
47366;BME280;33105;47.964;7.982;2024-02-21T17:10:12;96494.97;;;9.24;62.63
47366;BME280;33105;47.964;7.982;2024-02-21T17:13:13;96491.19;;;9.67;60.61
47366;BME280;33105;47.964;7.982;2024-02-21T17:16:14;96482.06;;;9.46;62.16
47366;BME280;33105;47.964;7.982;2024-02-21T17:19:15;96477.03;;;9.28;61.58
47366;BME280;33105;47.964;7.982;2024-02-21T17:22:17;96484.47;;;9.06;63.83
47366;BME280;33105;47.964;7.982;2024-02-21T17:25:18;96468.44;;;9.09;61.38
47366;BME280;33105;47.964;7.982;2024-02-21T17:28:19;96456.69;;;9.09;61.08
47366;BME280;33105;47.964;7.982;2024-02-21T17:31:20;96461.16;;;8.88;63.85
47366;BME280;33105;47.964;7.982;2024-02-21T17:34:22;96456.22;;;8.85;62.17
47366;BME280;33105;47.964;7.982;2024-02-21T17:37:23;96462.06;;;8.99;61.02
47366;BME280;33105;47.964;7.982;2024-02-21T17:40:24;96453.25;;;8.86;61.89
47366;BME280;33105;47.964;7.982;2024-02-21T17:43:26;96447.78;;;8.86;62.21
47366;BME280;33105;47.964;7.982;2024-02-21T17:46:30;96444.50;;;8.84;65.12
47366;BME280;33105;47.964;7.982;2024-02-21T17:49:31;96447.78;;;8.86;65.46
47366;BME280;33105;47.964;7.982;2024-02-21T17:52:34;96453.06;;;8.71;64.95
47366;BME280;33105;47.964;7.982;2024-02-21T17:55:35;96441.53;;;8.91;65.55
47366;BME280;33105;47.964;7.982;2024-02-21T17:58:38;96432.56;;;8.91;66.30
47366;BME280;33105;47.964;7.982;2024-02-21T18:01:39;96435.94;;;9.03;65.27
47366;BME280;33105;47.964;7.982;2024-02-21T18:04:41;96414.75;;;8.78;65.49
47366;BME280;33105;47.964;7.982;2024-02-21T18:07:43;96399.16;;;8.73;65.17
47366;BME280;33105;47.964;7.982;2024-02-21T18:10:44;96391.06;;;8.78;67.16
47366;BME280;33105;47.964;7.982;2024-02-21T18:13:45;96388.06;;;8.80;65.80
47366;BME280;33105;47.964;7.982;2024-02-21T18:16:47;96384.06;;;8.88;66.10
47366;BME280;33105;47.964;7.982;2024-02-21T18:19:49;96400.41;;;8.88;67.71
47366;BME280;33105;47.964;7.982;2024-02-21T18:22:50;96407.75;;;8.87;66.63
47366;BME280;33105;47.964;7.982;2024-02-21T18:25:53;96393.16;;;9.03;65.97
47366;BME280;33105;47.964;7.982;2024-02-21T18:28:54;96393.72;;;9.05;66.89
47366;BME280;33105;47.964;7.982;2024-02-21T18:31:55;96395.03;;;9.35;66.92
47366;BME280;33105;47.964;7.982;2024-02-21T18:34:57;96389.44;;;9.14;70.18
47366;BME280;33105;47.964;7.982;2024-02-21T18:37:59;96397.78;;;9.03;70.40
47366;BME280;33105;47.964;7.982;2024-02-21T18:41:01;96386.88;;;9.03;69.28
47366;BME280;33105;47.964;7.982;2024-02-21T18:44:03;96386.25;;;8.91;71.35